Time;durP1;ratioP1;P1;durP2;ratioP2;P2;SDS_P1;SDS_P2;PMS_P1;PMS_P2;Temp;Humidity;BMP_temperature;BMP_pressure;BME280_temperature;BME280_humidity;BME280_pressure;Samples;Min_cycle;Max_cycle;Signal;HPM_P1;HPM_P2
2022/09/19 00:05:38;;;;;;;2.50;2.30;;;;;;;;;;12600024;28;20040;-79
2022/09/19 00:11:41;;;;;;;1.92;1.83;;;;;;;;;;12593276;28;20024;-79
2022/09/19 00:17:43;;;;;;;1.63;1.52;;;;;;;;;;12595016;28;20370;-79
2022/09/19 00:30:05;;;;;;;1.58;1.48;;;;;;;;;;12593927;28;20033;-79
2022/09/19 00:36:08;;;;;;;1.80;1.70;;;;;;;;;;12592346;28;20040;-79
2022/09/19 00:42:15;;;;;;;1.77;1.67;;;;;;;;;;12592376;28;20036;-79
2022/09/19 00:48:18;;;;;;;1.70;1.60;;;;;;;;;;12592328;28;20056;-79
2022/09/19 00:54:22;;;;;;;1.88;1.77;;;;;;;;;;12594201;28;20028;-79
2022/09/19 01:00:25;;;;;;;2.40;2.20;;;;;;;;;;12592261;28;20367;-79
2022/09/19 01:06:46;;;;;;;1.60;1.50;;;;;;;;;;12591531;28;20060;-79
2022/09/19 01:12:52;;;;;;;1.90;1.80;;;;;;;;;;12591534;28;20039;-79
2022/09/19 01:19:04;;;;;;;2.40;2.08;;;;;;;;;;12592326;28;20390;-79
2022/09/19 01:25:08;;;;;;;;;;;;;;;;;;12602769;28;20489;-79
2022/09/19 01:31:17;;;;;;;1.80;1.70;;;;;;;;;;12602502;28;19912;-79
2022/09/19 01:37:27;;;;;;;1.98;1.55;;;;;;;;;;12602146;28;20389;-79
2022/09/19 01:43:30;;;;;;;1.75;1.65;;;;;;;;;;12600729;28;20043;-79
2022/09/19 01:49:32;;;;;;;1.77;1.67;;;;;;;;;;12600157;28;20048;-79
2022/09/19 01:55:49;;;;;;;1.60;1.50;;;;;;;;;;12600442;28;20058;-79
2022/09/19 02:01:51;;;;;;;1.90;1.80;;;;;;;;;;12600401;28;20397;-80
2022/09/19 02:08:12;;;;;;;1.50;1.40;;;;;;;;;;12599623;28;20036;-79
2022/09/19 02:14:18;;;;;;;2.30;2.20;;;;;;;;;;12582465;28;20036;-80
2022/09/19 02:20:29;;;;;;;1.80;1.70;;;;;;;;;;12599577;28;20039;-79
2022/09/19 02:26:32;;;;;;;1.40;1.30;;;;;;;;;;12598823;28;20441;-79
2022/09/19 02:32:47;;;;;;;1.70;1.60;;;;;;;;;;12599667;28;20044;-78
2022/09/19 02:38:56;;;;;;;1.58;1.48;;;;;;;;;;12591393;28;20055;-79
2022/09/19 02:45:16;;;;;;;1.83;1.73;;;;;;;;;;12596845;28;20040;-78
2022/09/19 02:51:30;;;;;;;1.65;1.55;;;;;;;;;;12597740;28;20063;-79
2022/09/19 02:57:34;;;;;;;2.22;2.13;;;;;;;;;;12598418;28;20032;-79
2022/09/19 03:10:15;;;;;;;2.10;1.98;;;;;;;;;;12596755;28;20039;-79
2022/09/19 03:16:37;;;;;;;;;;;;;;;;;;12597481;28;20052;-79
2022/09/19 03:22:40;;;;;;;2.10;2.00;;;;;;;;;;12596312;28;19923;-79
2022/09/19 03:28:42;;;;;;;1.88;1.77;;;;;;;;;;12595615;28;20351;-78
2022/09/19 03:34:46;;;;;;;2.13;2.03;;;;;;;;;;12595568;28;20509;-79
2022/09/19 03:40:48;;;;;;;2.30;2.20;;;;;;;;;;12595332;28;20389;-79
2022/09/19 03:46:50;;;;;;;2.10;2.00;;;;;;;;;;12594294;28;20298;-79
2022/09/19 03:52:53;;;;;;;2.85;2.75;;;;;;;;;;12594979;28;20037;-79
2022/09/19 03:58:54;;;;;;;2.17;2.07;;;;;;;;;;12595224;28;20036;-79
2022/09/19 04:04:58;;;;;;;2.35;2.15;;;;;;;;;;12593870;28;20045;-78
2022/09/19 04:11:00;;;;;;;2.10;2.00;;;;;;;;;;12593871;28;20036;-79
2022/09/19 04:17:06;;;;;;;2.08;1.88;;;;;;;;;;12577343;28;20501;-78
2022/09/19 04:23:09;;;;;;;2.00;1.90;;;;;;;;;;12576830;28;20029;-79
2022/09/19 04:29:38;;;;;;;1.63;1.52;;;;;;;;;;12592607;28;20049;-78
2022/09/19 04:35:43;;;;;;;2.42;2.28;;;;;;;;;;12593006;28;20029;-79
2022/09/19 04:41:48;;;;;;;2.10;2.00;;;;;;;;;;12592677;28;20043;-79
2022/09/19 04:47:50;;;;;;;2.00;1.90;;;;;;;;;;12593086;28;20061;-79
2022/09/19 04:53:53;;;;;;;2.55;2.35;;;;;;;;;;12591038;28;20029;-79
2022/09/19 04:59:55;;;;;;;2.08;1.98;;;;;;;;;;12591640;28;20482;-79
2022/09/19 05:05:58;;;;;;;3.00;2.80;;;;;;;;;;12591795;28;20401;-79
2022/09/19 05:12:08;;;;;;;2.80;2.60;;;;;;;;;;12596081;28;20028;-79
2022/09/19 05:18:13;;;;;;;2.70;2.50;;;;;;;;;;12575468;28;20074;-79
2022/09/19 05:24:16;;;;;;;2.03;1.92;;;;;;;;;;12591016;28;20048;-79
2022/09/19 05:30:21;;;;;;;2.30;2.20;;;;;;;;;;12573949;28;20032;-79
2022/09/19 05:36:23;;;;;;;2.38;2.17;;;;;;;;;;12590728;28;20029;-79
2022/09/19 05:42:42;;;;;;;1.95;1.85;;;;;;;;;;12590842;28;20033;-79
2022/09/19 05:48:44;;;;;;;1.65;1.55;;;;;;;;;;12567767;28;20049;-83
2022/09/19 05:54:45;;;;;;;2.67;2.47;;;;;;;;;;12560065;28;20024;-81
2022/09/19 06:01:03;;;;;;;2.35;2.25;;;;;;;;;;12547360;28;20017;-79
2022/09/19 06:07:05;;;;;;;2.25;2.15;;;;;;;;;;12576710;28;20422;-80
2022/09/19 06:13:10;;;;;;;2.92;2.65;;;;;;;;;;12545795;28;20151;-77
2022/09/19 06:19:12;;;;;;;2.55;2.35;;;;;;;;;;12558741;28;20033;-75
2022/09/19 06:25:14;;;;;;;2.10;1.60;;;;;;;;;;12555103;28;20048;-75
2022/09/19 06:31:16;;;;;;;2.35;1.95;;;;;;;;;;12571582;28;20029;-75
2022/09/19 06:37:41;;;;;;;2.00;1.85;;;;;;;;;;12553971;28;20214;-78
2022/09/19 06:43:45;;;;;;;1.63;1.52;;;;;;;;;;12560275;28;20378;-78
2022/09/19 06:50:15;;;;;;;1.63;1.52;;;;;;;;;;12574447;28;20045;-78
2022/09/19 06:56:38;;;;;;;1.52;1.42;;;;;;;;;;12559205;28;20024;-78
2022/09/19 07:02:42;;;;;;;3.10;2.05;;;;;;;;;;12560712;28;20035;-78
2022/09/19 07:08:44;;;;;;;1.30;1.20;;;;;;;;;;12558788;28;20052;-78
2022/09/19 07:14:46;;;;;;;3.63;1.47;;;;;;;;;;12561709;28;20496;-78
2022/09/19 07:20:49;;;;;;;1.52;1.40;;;;;;;;;;12563496;28;20031;-79
2022/09/19 07:26:53;;;;;;;1.30;1.20;;;;;;;;;;12567762;28;20052;-78
2022/09/19 07:32:58;;;;;;;1.17;1.08;;;;;;;;;;12551550;28;20043;-78
2022/09/19 07:39:00;;;;;;;0.82;0.82;;;;;;;;;;12566939;28;20036;-79
2022/09/19 07:45:28;;;;;;;1.25;1.00;;;;;;;;;;12568352;28;20057;-78
2022/09/19 07:51:51;;;;;;;1.60;1.50;;;;;;;;;;12559772;28;20049;-78
2022/09/19 07:57:55;;;;;;;1.08;0.98;;;;;;;;;;12557706;28;20040;-78
2022/09/19 08:04:07;;;;;;;0.90;0.60;;;;;;;;;;12556852;28;20032;-78
2022/09/19 08:10:32;;;;;;;1.48;0.68;;;;;;;;;;12544031;28;20040;-78
2022/09/19 08:16:36;;;;;;;0.40;0.38;;;;;;;;;;12557140;28;20429;-79
2022/09/19 08:22:38;;;;;;;0.57;0.50;;;;;;;;;;12553452;28;20028;-79
2022/09/19 08:28:43;;;;;;;0.93;0.70;;;;;;;;;;12545222;28;20041;-78
2022/09/19 08:34:47;;;;;;;1.02;0.70;;;;;;;;;;12537506;28;20028;-78
2022/09/19 08:41:14;;;;;;;0.80;0.70;;;;;;;;;;12556123;28;20040;-78
2022/09/19 08:47:19;;;;;;;0.30;0.30;;;;;;;;;;12531890;28;20059;-79
2022/09/19 08:53:27;;;;;;;0.80;0.80;;;;;;;;;;12562635;28;20032;-79
2022/09/19 08:59:39;;;;;;;0.40;0.40;;;;;;;;;;12559511;28;20029;-79
2022/09/19 09:05:42;;;;;;;;;;;;;;;;;;12558397;28;20053;-79
2022/09/19 09:11:45;;;;;;;0.30;0.30;;;;;;;;;;12551216;28;19909;-78
2022/09/19 09:18:07;;;;;;;0.70;0.60;;;;;;;;;;12550978;28;20032;-79
2022/09/19 09:24:31;;;;;;;1.40;0.75;;;;;;;;;;12553864;28;20048;-79
2022/09/19 09:31:12;;;;;;;0.88;0.60;;;;;;;;;;12556113;28;20625;-79
2022/09/19 09:37:20;;;;;;;0.40;0.40;;;;;;;;;;12550280;28;20020;-79
2022/09/19 09:43:27;;;;;;;0.30;0.30;;;;;;;;;;12554158;28;20036;-79
2022/09/19 09:49:31;;;;;;;0.50;0.40;;;;;;;;;;12575451;28;20389;-80
2022/09/19 10:08:37;;;;;;;0.32;0.32;;;;;;;;;;12575360;28;20052;-77
2022/09/19 10:15:00;;;;;;;0.65;0.50;;;;;;;;;;12571345;28;20489;-78
2022/09/19 10:21:14;;;;;;;0.30;0.20;;;;;;;;;;12562205;28;20049;-78
2022/09/19 10:27:31;;;;;;;1.75;0.40;;;;;;;;;;12552103;28;20382;-78
2022/09/19 10:33:41;;;;;;;0.30;0.30;;;;;;;;;;12545027;28;20033;-79
2022/09/19 10:39:50;;;;;;;;;;;;;;;;;;12580397;28;20055;-78
2022/09/19 10:46:06;;;;;;;0.55;0.40;;;;;;;;;;12580390;28;19916;-78
2022/09/19 10:52:09;;;;;;;2.60;0.50;;;;;;;;;;12568184;28;20056;-78
2022/09/19 10:58:18;;;;;;;0.60;0.40;;;;;;;;;;12579971;28;20040;-79
2022/09/19 11:04:26;;;;;;;0.70;0.55;;;;;;;;;;12569632;28;20043;-80
2022/09/19 11:10:38;;;;;;;1.38;0.73;;;;;;;;;;12574072;28;20513;-78
2022/09/19 11:17:06;;;;;;;0.52;0.40;;;;;;;;;;12556209;28;20033;-80
2022/09/19 11:23:28;;;;;;;0.40;0.40;;;;;;;;;;12544427;28;20033;-81
2022/09/19 11:29:51;;;;;;;0.80;0.40;;;;;;;;;;12554133;28;20328;-80
2022/09/19 11:36:17;;;;;;;0.38;0.38;;;;;;;;;;12543370;28;20032;-81
2022/09/19 11:42:24;;;;;;;0.25;0.25;;;;;;;;;;12568705;28;20037;-80
2022/09/19 11:48:28;;;;;;;0.30;0.22;;;;;;;;;;12584921;28;20403;-80
2022/09/19 11:54:47;;;;;;;0.95;0.17;;;;;;;;;;12555840;28;20036;-81
2022/09/19 12:00:57;;;;;;;0.85;0.20;;;;;;;;;;12562493;28;20651;-80
2022/09/19 12:07:03;;;;;;;0.22;0.20;;;;;;;;;;12568653;28;20047;-81
2022/09/19 12:13:05;;;;;;;0.15;0.10;;;;;;;;;;12588219;28;20040;-80
2022/09/19 12:19:19;;;;;;;0.20;0.20;;;;;;;;;;12551142;28;20059;-80
2022/09/19 12:25:25;;;;;;;0.25;0.20;;;;;;;;;;12545284;28;20048;-80
2022/09/19 12:31:36;;;;;;;0.25;0.20;;;;;;;;;;12587606;28;20025;-80
2022/09/19 12:37:52;;;;;;;0.68;0.30;;;;;;;;;;12566787;28;20041;-79
2022/09/19 12:44:20;;;;;;;0.30;0.30;;;;;;;;;;12580453;28;20464;-81
2022/09/19 12:50:33;;;;;;;0.20;0.10;;;;;;;;;;12569430;28;20195;-83
2022/09/19 12:56:38;;;;;;;0.75;0.20;;;;;;;;;;12574068;28;20389;-81
2022/09/19 13:02:43;;;;;;;0.20;0.20;;;;;;;;;;12568980;28;20371;-80
2022/09/19 13:09:03;;;;;;;1.15;0.30;;;;;;;;;;12587987;28;20544;-80
2022/09/19 13:15:15;;;;;;;0.15;0.10;;;;;;;;;;12571876;28;20032;-80
2022/09/19 13:28:19;;;;;;;0.35;0.30;;;;;;;;;;12570432;28;20060;-80
2022/09/19 13:34:33;;;;;;;0.27;0.27;;;;;;;;;;12571551;28;20608;-80
2022/09/19 13:40:48;;;;;;;0.60;0.20;;;;;;;;;;12582496;28;20025;-79
2022/09/19 13:47:07;;;;;;;0.70;0.40;;;;;;;;;;12591069;28;20048;-80
2022/09/19 13:53:22;;;;;;;0.38;0.20;;;;;;;;;;12585675;28;20485;-81
2022/09/19 13:59:37;;;;;;;0.38;0.30;;;;;;;;;;12589906;28;20481;-79
2022/09/19 14:05:39;;;;;;;0.20;0.20;;;;;;;;;;12590427;28;20500;-79
2022/09/19 14:11:41;;;;;;;0.40;0.40;;;;;;;;;;12590539;28;20032;-80
2022/09/19 14:18:02;;;;;;;0.45;0.35;;;;;;;;;;12589660;28;20033;-80
2022/09/19 14:24:22;;;;;;;0.93;0.40;;;;;;;;;;12590991;28;20045;-80
2022/09/19 14:30:39;;;;;;;0.30;0.28;;;;;;;;;;12597863;28;20037;-80
2022/09/19 14:36:44;;;;;;;0.32;0.30;;;;;;;;;;12598344;28;20033;-80
2022/09/19 14:43:06;;;;;;;0.20;0.20;;;;;;;;;;12599416;28;20051;-80
2022/09/19 14:49:20;;;;;;;0.52;0.20;;;;;;;;;;12597676;28;20091;-80
2022/09/19 14:55:23;;;;;;;1.05;0.20;;;;;;;;;;12597481;28;20047;-80
2022/09/19 15:01:33;;;;;;;0.20;0.20;;;;;;;;;;12598549;28;20037;-80
2022/09/19 15:07:35;;;;;;;0.10;0.10;;;;;;;;;;12597251;28;20048;-80
2022/09/19 15:13:45;;;;;;;0.20;0.20;;;;;;;;;;12595602;28;20026;-81
2022/09/19 15:19:48;;;;;;;0.57;0.20;;;;;;;;;;12593057;28;20028;-80
2022/09/19 15:25:55;;;;;;;0.20;0.20;;;;;;;;;;12594828;28;20044;-80
2022/09/19 15:32:15;;;;;;;0.20;0.20;;;;;;;;;;12593503;28;20521;-80
2022/09/19 15:38:35;;;;;;;0.93;0.10;;;;;;;;;;12590981;28;20059;-80
2022/09/19 15:44:37;;;;;;;0.40;0.22;;;;;;;;;;12593143;28;20035;-80
2022/09/19 15:50:42;;;;;;;1.05;0.45;;;;;;;;;;12591350;28;20049;-81
2022/09/19 15:56:45;;;;;;;0.45;0.20;;;;;;;;;;12591190;28;20039;-81
2022/09/19 16:02:53;;;;;;;0.57;0.20;;;;;;;;;;12593512;28;20036;-80
2022/09/19 16:08:58;;;;;;;0.20;0.20;;;;;;;;;;12585234;28;20504;-81
2022/09/19 16:15:26;;;;;;;0.10;0.10;;;;;;;;;;12573800;28;20044;-80
2022/09/19 16:21:39;;;;;;;0.20;0.10;;;;;;;;;;12559807;28;20043;-80
2022/09/19 16:27:41;;;;;;;0.10;0.10;;;;;;;;;;12576197;28;20346;-80
2022/09/19 16:33:47;;;;;;;0.35;0.20;;;;;;;;;;12577439;28;20039;-81
2022/09/19 16:39:50;;;;;;;0.88;0.60;;;;;;;;;;12577596;28;20044;-81
2022/09/19 16:45:51;;;;;;;1.00;0.90;;;;;;;;;;12578254;28;20043;-81
2022/09/19 16:51:54;;;;;;;1.52;1.10;;;;;;;;;;12577618;28;20476;-81
2022/09/19 16:57:57;;;;;;;0.65;0.65;;;;;;;;;;12576153;28;20039;-80
2022/09/19 17:03:59;;;;;;;0.90;0.70;;;;;;;;;;12575878;28;20039;-80
2022/09/19 17:10:00;;;;;;;0.60;0.60;;;;;;;;;;12577530;28;20130;-80
2022/09/19 17:16:04;;;;;;;0.63;0.40;;;;;;;;;;12576235;28;20028;-80
2022/09/19 17:22:11;;;;;;;0.65;0.30;;;;;;;;;;12575736;28;20142;-81
2022/09/19 17:28:16;;;;;;;0.40;0.30;;;;;;;;;;12574458;28;20530;-80
2022/09/19 17:34:18;;;;;;;0.60;0.30;;;;;;;;;;12576956;28;20072;-80
2022/09/19 17:40:20;;;;;;;0.40;0.25;;;;;;;;;;12575171;28;20091;-80
2022/09/19 17:46:23;;;;;;;0.40;0.40;;;;;;;;;;12575258;28;20044;-80
2022/09/19 17:52:26;;;;;;;1.45;0.40;;;;;;;;;;12576174;28;20493;-80
2022/09/19 17:58:28;;;;;;;0.70;0.32;;;;;;;;;;12576832;28;20028;-79
2022/09/19 18:04:30;;;;;;;0.45;0.30;;;;;;;;;;12581470;28;20393;-80
2022/09/19 18:10:32;;;;;;;0.65;0.40;;;;;;;;;;12584433;28;20045;-80
2022/09/19 18:16:39;;;;;;;;;;;;;;;;;;12585366;28;20044;-80
2022/09/19 18:22:42;;;;;;;0.85;0.43;;;;;;;;;;12588714;28;19912;-80
2022/09/19 18:28:52;;;;;;;0.20;0.20;;;;;;;;;;12588951;28;20052;-79
2022/09/19 18:34:54;;;;;;;0.20;0.20;;;;;;;;;;12588197;28;20047;-81
2022/09/19 18:40:58;;;;;;;0.30;0.30;;;;;;;;;;12586304;28;20029;-80
2022/09/19 18:47:00;;;;;;;0.98;0.90;;;;;;;;;;12585073;28;20517;-80
2022/09/19 18:53:02;;;;;;;1.20;1.20;;;;;;;;;;12584747;28;20055;-80
2022/09/19 18:59:04;;;;;;;1.93;1.70;;;;;;;;;;12586600;28;20036;-80
2022/09/19 19:05:06;;;;;;;1.10;1.00;;;;;;;;;;12585173;28;20729;-80
2022/09/19 19:11:11;;;;;;;1.55;0.80;;;;;;;;;;12585193;28;20103;-79
2022/09/19 19:17:13;;;;;;;0.77;0.70;;;;;;;;;;12566889;28;20067;-81
2022/09/19 19:23:15;;;;;;;;;;;;;;;;;;12567127;28;20397;-81
2022/09/19 19:29:17;;;;;;;0.93;0.68;;;;;;;;;;12583668;28;20357;-81
2022/09/19 19:35:19;;;;;;;1.15;0.63;;;;;;;;;;12584593;28;20051;-79
2022/09/19 19:41:25;;;;;;;0.60;0.60;;;;;;;;;;12582510;28;20136;-79
2022/09/19 19:47:27;;;;;;;0.63;0.50;;;;;;;;;;12582609;28;20473;-79
2022/09/19 19:53:30;;;;;;;0.47;0.47;;;;;;;;;;12583852;28;20124;-79
2022/09/19 19:59:32;;;;;;;0.80;0.65;;;;;;;;;;12581310;28;20080;-78
2022/09/19 20:05:34;;;;;;;0.95;0.70;;;;;;;;;;12581789;28;20457;-79
2022/09/19 20:11:36;;;;;;;0.77;0.60;;;;;;;;;;12583352;28;20067;-79
2022/09/19 20:17:38;;;;;;;0.85;0.63;;;;;;;;;;12581731;28;20041;-79
2022/09/19 20:23:40;;;;;;;0.80;0.60;;;;;;;;;;12581096;28;20040;-79
2022/09/19 20:29:41;;;;;;;0.45;0.40;;;;;;;;;;12580796;28;20510;-79
2022/09/19 20:35:43;;;;;;;0.60;0.60;;;;;;;;;;12581416;28;20063;-79
2022/09/19 20:41:45;;;;;;;0.73;0.73;;;;;;;;;;12578929;28;20032;-80
2022/09/19 20:47:48;;;;;;;0.80;0.80;;;;;;;;;;12580102;28;20474;-80
2022/09/19 20:53:55;;;;;;;1.33;0.65;;;;;;;;;;12580072;28;20044;-80
2022/09/19 20:59:58;;;;;;;0.93;0.93;;;;;;;;;;12579119;28;20044;-80
2022/09/19 21:06:00;;;;;;;0.80;0.80;;;;;;;;;;12577320;28;20066;-79
2022/09/19 21:12:02;;;;;;;0.80;0.80;;;;;;;;;;12563385;28;20382;-80
2022/09/19 21:18:04;;;;;;;0.75;0.75;;;;;;;;;;12576884;28;20039;-81
2022/09/19 21:24:06;;;;;;;0.80;0.80;;;;;;;;;;12576485;28;20033;-80
2022/09/19 21:30:08;;;;;;;2.33;1.00;;;;;;;;;;12576229;28;20052;-80
2022/09/19 21:36:10;;;;;;;1.25;0.73;;;;;;;;;;12580524;28;20085;-80
2022/09/19 21:42:12;;;;;;;1.13;0.70;;;;;;;;;;12588190;28;20032;-79
2022/09/19 21:48:16;;;;;;;0.80;0.50;;;;;;;;;;12589172;28;20053;-79
2022/09/19 21:54:18;;;;;;;1.30;0.50;;;;;;;;;;12539547;28;20523;-79
2022/09/19 22:00:20;;;;;;;1.05;0.60;;;;;;;;;;12540994;28;20060;-80
2022/09/19 22:06:22;;;;;;;0.80;0.63;;;;;;;;;;12538574;28;20048;-79
2022/09/19 22:12:24;;;;;;;0.50;0.50;;;;;;;;;;12539979;28;20029;-78
2022/09/19 22:18:26;;;;;;;0.93;0.60;;;;;;;;;;12539770;28;20411;-79
2022/09/19 22:24:28;;;;;;;0.40;0.40;;;;;;;;;;12537424;28;20033;-80
2022/09/19 22:30:30;;;;;;;0.30;0.30;;;;;;;;;;12521844;28;20041;-80
2022/09/19 22:36:33;;;;;;;1.30;0.50;;;;;;;;;;12537524;28;20029;-79
2022/09/19 22:42:35;;;;;;;0.65;0.30;;;;;;;;;;12538742;28;20105;-79
2022/09/19 22:48:40;;;;;;;1.17;0.47;;;;;;;;;;12536370;28;20052;-79
2022/09/19 22:54:43;;;;;;;0.57;0.30;;;;;;;;;;12539723;28;20033;-80
2022/09/19 23:00:47;;;;;;;1.13;0.17;;;;;;;;;;12537622;28;20044;-79
2022/09/19 23:06:49;;;;;;;0.90;0.20;;;;;;;;;;12535763;28;20040;-79
2022/09/19 23:13:45;;;;;;;0.60;0.27;;;;;;;;;;12536584;28;20088;-79
2022/09/19 23:19:14;;;;;;;0.20;0.20;;;;;;;;;;12534900;28;20033;-79
2022/09/19 23:25:16;;;;;;;0.30;0.30;;;;;;;;;;12535747;28;20060;-79
2022/09/19 23:31:19;;;;;;;0.20;0.20;;;;;;;;;;12535465;28;20037;-79
2022/09/19 23:37:20;;;;;;;0.20;0.20;;;;;;;;;;12535666;28;20438;-78
2022/09/19 23:43:22;;;;;;;0.20;0.20;;;;;;;;;;12534571;28;20040;-79
2022/09/19 23:49:24;;;;;;;0.80;0.40;;;;;;;;;;12533093;28;20045;-79
2022/09/19 23:55:26;;;;;;;0.80;0.50;;;;;;;;;;12533720;28;20037;-77
